sensor_id;sensor_type;location;lat;lon;timestamp;P1;durP1;ratioP1;P2;durP2;ratioP2
75700;SDS011;64321;48.796;44.740;2023-06-14T00:05:22;15.93;;;5.15;;
75700;SDS011;64321;48.796;44.740;2023-06-14T00:11:25;16.55;;;6.18;;
75700;SDS011;64321;48.796;44.740;2023-06-14T00:17:49;10.55;;;5.40;;
75700;SDS011;64321;48.796;44.740;2023-06-14T00:23:32;13.70;;;4.20;;
75700;SDS011;64321;48.796;44.740;2023-06-14T00:29:11;18.77;;;5.05;;
75700;SDS011;64321;48.796;44.740;2023-06-14T00:34:29;16.08;;;6.95;;
75700;SDS011;64321;48.796;44.740;2023-06-14T00:46:08;17.83;;;5.50;;
75700;SDS011;64321;48.796;44.740;2023-06-14T00:52:29;17.73;;;6.60;;
75700;SDS011;64321;48.796;44.740;2023-06-14T00:58:20;19.48;;;7.53;;
75700;SDS011;64321;48.796;44.740;2023-06-14T01:03:37;14.82;;;7.13;;
75700;SDS011;64321;48.796;44.740;2023-06-14T01:15:25;23.27;;;7.47;;
75700;SDS011;64321;48.796;44.740;2023-06-14T01:21:24;15.82;;;8.38;;
75700;SDS011;64321;48.796;44.740;2023-06-14T01:27:03;19.77;;;7.65;;
75700;SDS011;64321;48.796;44.740;2023-06-14T01:39:14;11.32;;;4.20;;
75700;SDS011;64321;48.796;44.740;2023-06-14T01:44:30;8.43;;;2.88;;
75700;SDS011;64321;48.796;44.740;2023-06-14T01:50:21;11.15;;;2.78;;
75700;SDS011;64321;48.796;44.740;2023-06-14T01:56:27;10.70;;;2.58;;
75700;SDS011;64321;48.796;44.740;2023-06-14T02:07:54;12.90;;;3.15;;
75700;SDS011;64321;48.796;44.740;2023-06-14T02:19:37;9.98;;;3.22;;
75700;SDS011;64321;48.796;44.740;2023-06-14T02:25:08;18.38;;;3.35;;
75700;SDS011;64321;48.796;44.740;2023-06-14T02:30:53;11.10;;;4.07;;
75700;SDS011;64321;48.796;44.740;2023-06-14T02:36:43;14.73;;;4.68;;
75700;SDS011;64321;48.796;44.740;2023-06-14T02:42:35;17.55;;;6.78;;
75700;SDS011;64321;48.796;44.740;2023-06-14T02:48:24;20.25;;;7.88;;
75700;SDS011;64321;48.796;44.740;2023-06-14T03:00:44;21.40;;;7.65;;
75700;SDS011;64321;48.796;44.740;2023-06-14T03:06:42;15.35;;;4.72;;
75700;SDS011;64321;48.796;44.740;2023-06-14T03:12:39;21.98;;;5.60;;
75700;SDS011;64321;48.796;44.740;2023-06-14T03:18:08;16.35;;;4.40;;
75700;SDS011;64321;48.796;44.740;2023-06-14T03:23:33;13.90;;;3.92;;
75700;SDS011;64321;48.796;44.740;2023-06-14T03:29:28;13.13;;;3.67;;
75700;SDS011;64321;48.796;44.740;2023-06-14T03:35:39;15.60;;;3.40;;
75700;SDS011;64321;48.796;44.740;2023-06-14T03:42:24;12.98;;;3.35;;
75700;SDS011;64321;48.796;44.740;2023-06-14T03:54:44;9.10;;;2.78;;
75700;SDS011;64321;48.796;44.740;2023-06-14T04:00:56;9.43;;;2.75;;
75700;SDS011;64321;48.796;44.740;2023-06-14T04:06:13;18.70;;;3.08;;
75700;SDS011;64321;48.796;44.740;2023-06-14T04:12:18;7.78;;;3.63;;
75700;SDS011;64321;48.796;44.740;2023-06-14T04:17:45;11.95;;;2.95;;
75700;SDS011;64321;48.796;44.740;2023-06-14T04:23:17;10.30;;;2.78;;
75700;SDS011;64321;48.796;44.740;2023-06-14T04:29:25;12.05;;;2.85;;
75700;SDS011;64321;48.796;44.740;2023-06-14T04:35:08;11.30;;;4.20;;
75700;SDS011;64321;48.796;44.740;2023-06-14T04:40:36;12.15;;;3.42;;
75700;SDS011;64321;48.796;44.740;2023-06-14T04:52:22;8.32;;;2.55;;
75700;SDS011;64321;48.796;44.740;2023-06-14T04:58:23;15.27;;;2.97;;
75700;SDS011;64321;48.796;44.740;2023-06-14T05:04:26;11.02;;;3.65;;
75700;SDS011;64321;48.796;44.740;2023-06-14T05:16:31;12.80;;;3.17;;
75700;SDS011;64321;48.796;44.740;2023-06-14T05:22:16;10.20;;;3.00;;
75700;SDS011;64321;48.796;44.740;2023-06-14T05:28:23;11.70;;;4.15;;
75700;SDS011;64321;48.796;44.740;2023-06-14T05:35:02;15.88;;;3.88;;
75700;SDS011;64321;48.796;44.740;2023-06-14T05:40:51;10.52;;;3.10;;
75700;SDS011;64321;48.796;44.740;2023-06-14T05:46:37;14.70;;;4.78;;
75700;SDS011;64321;48.796;44.740;2023-06-14T05:52:15;20.05;;;4.15;;
75700;SDS011;64321;48.796;44.740;2023-06-14T05:58:59;12.55;;;5.82;;
75700;SDS011;64321;48.796;44.740;2023-06-14T06:04:30;17.50;;;4.40;;
75700;SDS011;64321;48.796;44.740;2023-06-14T06:09:44;12.80;;;3.22;;
75700;SDS011;64321;48.796;44.740;2023-06-14T06:15:15;15.63;;;2.95;;
75700;SDS011;64321;48.796;44.740;2023-06-14T06:20:43;16.88;;;3.30;;
75700;SDS011;64321;48.796;44.740;2023-06-14T06:26:22;14.73;;;3.30;;
75700;SDS011;64321;48.796;44.740;2023-06-14T06:31:39;16.08;;;3.40;;
75700;SDS011;64321;48.796;44.740;2023-06-14T06:37:00;9.63;;;2.85;;
75700;SDS011;64321;48.796;44.740;2023-06-14T06:42:38;15.15;;;3.20;;
75700;SDS011;64321;48.796;44.740;2023-06-14T06:47:55;13.30;;;3.55;;
75700;SDS011;64321;48.796;44.740;2023-06-14T06:53:28;18.25;;;3.15;;
75700;SDS011;64321;48.796;44.740;2023-06-14T06:58:57;11.57;;;3.53;;
75700;SDS011;64321;48.796;44.740;2023-06-14T07:04:21;14.15;;;3.78;;
75700;SDS011;64321;48.796;44.740;2023-06-14T07:10:11;9.50;;;3.38;;
75700;SDS011;64321;48.796;44.740;2023-06-14T07:15:50;15.63;;;5.22;;
75700;SDS011;64321;48.796;44.740;2023-06-14T07:26:31;12.70;;;4.63;;
75700;SDS011;64321;48.796;44.740;2023-06-14T07:31:46;16.52;;;4.40;;
75700;SDS011;64321;48.796;44.740;2023-06-14T07:36:56;16.42;;;5.25;;
75700;SDS011;64321;48.796;44.740;2023-06-14T07:42:14;18.90;;;5.03;;
75700;SDS011;64321;48.796;44.740;2023-06-14T07:47:35;14.38;;;5.53;;
75700;SDS011;64321;48.796;44.740;2023-06-14T07:52:54;20.90;;;5.30;;
75700;SDS011;64321;48.796;44.740;2023-06-14T07:58:09;13.70;;;3.80;;
75700;SDS011;64321;48.796;44.740;2023-06-14T08:20:49;16.08;;;3.60;;
75700;SDS011;64321;48.796;44.740;2023-06-14T08:26:10;13.27;;;5.28;;
75700;SDS011;64321;48.796;44.740;2023-06-14T08:31:17;16.05;;;6.15;;
75700;SDS011;64321;48.796;44.740;2023-06-14T08:36:32;12.73;;;4.60;;
75700;SDS011;64321;48.796;44.740;2023-06-14T08:41:47;14.27;;;4.22;;
75700;SDS011;64321;48.796;44.740;2023-06-14T08:47:06;12.75;;;4.60;;
75700;SDS011;64321;48.796;44.740;2023-06-14T08:52:45;18.98;;;4.55;;
75700;SDS011;64321;48.796;44.740;2023-06-14T08:58:05;9.27;;;3.75;;
75700;SDS011;64321;48.796;44.740;2023-06-14T09:03:56;11.80;;;4.15;;
75700;SDS011;64321;48.796;44.740;2023-06-14T09:09:14;10.40;;;3.85;;
75700;SDS011;64321;48.796;44.740;2023-06-14T09:14:40;10.20;;;3.58;;
75700;SDS011;64321;48.796;44.740;2023-06-14T09:20:07;13.45;;;4.20;;
75700;SDS011;64321;48.796;44.740;2023-06-14T09:25:31;17.42;;;4.82;;
75700;SDS011;64321;48.796;44.740;2023-06-14T09:30:44;14.70;;;4.95;;
75700;SDS011;64321;48.796;44.740;2023-06-14T09:36:31;16.80;;;4.25;;
75700;SDS011;64321;48.796;44.740;2023-06-14T09:42:25;13.38;;;3.55;;
75700;SDS011;64321;48.796;44.740;2023-06-14T09:47:51;12.52;;;3.97;;
75700;SDS011;64321;48.796;44.740;2023-06-14T09:53:15;11.18;;;3.42;;
75700;SDS011;64321;48.796;44.740;2023-06-14T09:58:51;16.05;;;4.38;;
75700;SDS011;64321;48.796;44.740;2023-06-14T10:04:21;13.65;;;3.58;;
75700;SDS011;64321;48.796;44.740;2023-06-14T10:09:39;13.10;;;3.72;;
75700;SDS011;64321;48.796;44.740;2023-06-14T10:15:02;12.95;;;4.47;;
75700;SDS011;64321;48.796;44.740;2023-06-14T10:20:29;13.93;;;3.70;;
75700;SDS011;64321;48.796;44.740;2023-06-14T10:25:58;14.65;;;4.10;;
75700;SDS011;64321;48.796;44.740;2023-06-14T10:31:50;11.65;;;3.92;;
75700;SDS011;64321;48.796;44.740;2023-06-14T10:37:13;12.18;;;4.97;;
75700;SDS011;64321;48.796;44.740;2023-06-14T10:42:31;11.73;;;5.15;;
75700;SDS011;64321;48.796;44.740;2023-06-14T10:48:01;17.98;;;4.30;;
75700;SDS011;64321;48.796;44.740;2023-06-14T10:53:24;10.88;;;3.95;;
75700;SDS011;64321;48.796;44.740;2023-06-14T10:58:48;13.52;;;4.40;;
75700;SDS011;64321;48.796;44.740;2023-06-14T11:04:08;15.20;;;4.70;;
75700;SDS011;64321;48.796;44.740;2023-06-14T11:09:28;10.13;;;3.60;;
75700;SDS011;64321;48.796;44.740;2023-06-14T11:15:19;15.48;;;3.67;;
75700;SDS011;64321;48.796;44.740;2023-06-14T11:21:20;14.48;;;3.60;;
75700;SDS011;64321;48.796;44.740;2023-06-14T11:26:55;9.45;;;4.65;;
75700;SDS011;64321;48.796;44.740;2023-06-14T11:32:58;15.10;;;5.00;;
75700;SDS011;64321;48.796;44.740;2023-06-14T11:38:15;14.68;;;4.15;;
75700;SDS011;64321;48.796;44.740;2023-06-14T11:44:20;20.10;;;5.50;;
75700;SDS011;64321;48.796;44.740;2023-06-14T11:49:58;18.17;;;5.15;;
75700;SDS011;64321;48.796;44.740;2023-06-14T11:56:25;32.72;;;12.50;;
75700;SDS011;64321;48.796;44.740;2023-06-14T12:02:19;19.00;;;5.90;;
75700;SDS011;64321;48.796;44.740;2023-06-14T12:07:39;29.30;;;5.93;;
75700;SDS011;64321;48.796;44.740;2023-06-14T12:12:56;61.28;;;8.18;;
75700;SDS011;64321;48.796;44.740;2023-06-14T12:18:14;18.25;;;5.00;;
75700;SDS011;64321;48.796;44.740;2023-06-14T12:30:11;22.98;;;4.05;;
75700;SDS011;64321;48.796;44.740;2023-06-14T12:35:32;22.95;;;3.72;;
75700;SDS011;64321;48.796;44.740;2023-06-14T12:40:59;15.90;;;3.53;;
75700;SDS011;64321;48.796;44.740;2023-06-14T12:46:18;12.23;;;3.80;;
75700;SDS011;64321;48.796;44.740;2023-06-14T12:51:43;17.88;;;2.75;;
75700;SDS011;64321;48.796;44.740;2023-06-14T12:57:03;14.48;;;3.42;;
75700;SDS011;64321;48.796;44.740;2023-06-14T13:02:23;11.05;;;3.72;;
75700;SDS011;64321;48.796;44.740;2023-06-14T13:07:48;14.90;;;2.53;;
75700;SDS011;64321;48.796;44.740;2023-06-14T13:13:01;17.02;;;3.00;;
75700;SDS011;64321;48.796;44.740;2023-06-14T13:18:20;18.30;;;3.90;;
75700;SDS011;64321;48.796;44.740;2023-06-14T13:23:42;16.65;;;3.92;;
75700;SDS011;64321;48.796;44.740;2023-06-14T13:29:33;15.10;;;3.60;;
75700;SDS011;64321;48.796;44.740;2023-06-14T13:34:54;13.32;;;3.28;;
75700;SDS011;64321;48.796;44.740;2023-06-14T13:40:49;15.27;;;4.38;;
75700;SDS011;64321;48.796;44.740;2023-06-14T13:46:19;14.73;;;3.65;;
75700;SDS011;64321;48.796;44.740;2023-06-14T13:51:40;26.33;;;4.72;;
75700;SDS011;64321;48.796;44.740;2023-06-14T13:57:31;17.77;;;4.43;;
75700;SDS011;64321;48.796;44.740;2023-06-14T14:03:06;13.63;;;3.35;;
75700;SDS011;64321;48.796;44.740;2023-06-14T14:09:11;18.88;;;3.05;;
75700;SDS011;64321;48.796;44.740;2023-06-14T14:14:38;20.02;;;2.88;;
75700;SDS011;64321;48.796;44.740;2023-06-14T14:20:47;19.98;;;3.15;;
75700;SDS011;64321;48.796;44.740;2023-06-14T14:26:22;24.63;;;4.07;;
75700;SDS011;64321;48.796;44.740;2023-06-14T14:31:52;18.90;;;3.67;;
75700;SDS011;64321;48.796;44.740;2023-06-14T14:37:16;30.52;;;4.95;;
75700;SDS011;64321;48.796;44.740;2023-06-14T14:42:57;18.85;;;4.28;;
75700;SDS011;64321;48.796;44.740;2023-06-14T14:54:10;25.90;;;4.63;;
75700;SDS011;64321;48.796;44.740;2023-06-14T14:59:49;25.17;;;4.18;;
75700;SDS011;64321;48.796;44.740;2023-06-14T15:05:23;19.75;;;4.03;;
75700;SDS011;64321;48.796;44.740;2023-06-14T15:10:56;24.05;;;4.38;;
75700;SDS011;64321;48.796;44.740;2023-06-14T15:16:40;21.38;;;3.45;;
75700;SDS011;64321;48.796;44.740;2023-06-14T15:22:14;13.70;;;3.03;;
75700;SDS011;64321;48.796;44.740;2023-06-14T15:28:10;23.00;;;3.80;;
75700;SDS011;64321;48.796;44.740;2023-06-14T15:33:58;28.67;;;3.63;;
75700;SDS011;64321;48.796;44.740;2023-06-14T15:39:22;17.48;;;4.38;;
75700;SDS011;64321;48.796;44.740;2023-06-14T15:44:53;17.67;;;4.00;;
75700;SDS011;64321;48.796;44.740;2023-06-14T15:51:09;25.55;;;4.25;;
75700;SDS011;64321;48.796;44.740;2023-06-14T15:57:15;29.85;;;5.03;;
75700;SDS011;64321;48.796;44.740;2023-06-14T16:03:12;21.73;;;4.35;;
75700;SDS011;64321;48.796;44.740;2023-06-14T16:09:13;17.50;;;2.85;;
75700;SDS011;64321;48.796;44.740;2023-06-14T16:15:17;21.52;;;4.55;;
75700;SDS011;64321;48.796;44.740;2023-06-14T16:20:55;12.88;;;3.35;;
75700;SDS011;64321;48.796;44.740;2023-06-14T16:26:39;19.60;;;3.00;;
75700;SDS011;64321;48.796;44.740;2023-06-14T16:32:02;17.92;;;3.05;;
75700;SDS011;64321;48.796;44.740;2023-06-14T16:38:14;24.67;;;4.18;;
75700;SDS011;64321;48.796;44.740;2023-06-14T16:44:05;19.02;;;3.47;;
75700;SDS011;64321;48.796;44.740;2023-06-14T16:50:10;15.48;;;4.13;;
75700;SDS011;64321;48.796;44.740;2023-06-14T16:56:02;15.68;;;3.47;;
75700;SDS011;64321;48.796;44.740;2023-06-14T17:02:06;15.85;;;3.97;;
75700;SDS011;64321;48.796;44.740;2023-06-14T17:07:33;23.35;;;3.67;;
75700;SDS011;64321;48.796;44.740;2023-06-14T17:13:21;19.88;;;4.15;;
75700;SDS011;64321;48.796;44.740;2023-06-14T17:19:08;19.45;;;2.90;;
75700;SDS011;64321;48.796;44.740;2023-06-14T17:25:02;17.27;;;2.80;;
75700;SDS011;64321;48.796;44.740;2023-06-14T17:31:20;14.90;;;3.38;;
75700;SDS011;64321;48.796;44.740;2023-06-14T17:36:59;14.90;;;2.55;;
75700;SDS011;64321;48.796;44.740;2023-06-14T17:42:37;15.00;;;3.75;;
75700;SDS011;64321;48.796;44.740;2023-06-14T17:48:44;10.48;;;2.83;;
75700;SDS011;64321;48.796;44.740;2023-06-14T17:54:19;16.55;;;3.50;;
75700;SDS011;64321;48.796;44.740;2023-06-14T18:00:17;9.10;;;2.75;;
75700;SDS011;64321;48.796;44.740;2023-06-14T18:06:16;16.50;;;2.70;;
75700;SDS011;64321;48.796;44.740;2023-06-14T18:12:15;7.38;;;2.13;;
75700;SDS011;64321;48.796;44.740;2023-06-14T18:17:51;13.35;;;2.30;;
75700;SDS011;64321;48.796;44.740;2023-06-14T18:24:00;11.05;;;2.47;;
75700;SDS011;64321;48.796;44.740;2023-06-14T18:29:56;10.82;;;2.50;;
75700;SDS011;64321;48.796;44.740;2023-06-14T18:41:40;10.82;;;2.70;;
75700;SDS011;64321;48.796;44.740;2023-06-14T18:47:29;11.45;;;2.63;;
75700;SDS011;64321;48.796;44.740;2023-06-14T18:53:44;13.18;;;3.00;;
75700;SDS011;64321;48.796;44.740;2023-06-14T18:59:15;14.60;;;2.38;;
75700;SDS011;64321;48.796;44.740;2023-06-14T19:04:55;13.60;;;3.30;;
75700;SDS011;64321;48.796;44.740;2023-06-14T19:10:49;13.93;;;2.85;;
75700;SDS011;64321;48.796;44.740;2023-06-14T19:16:39;12.10;;;3.30;;
75700;SDS011;64321;48.796;44.740;2023-06-14T19:22:04;10.63;;;3.72;;
75700;SDS011;64321;48.796;44.740;2023-06-14T19:27:32;12.88;;;2.47;;
75700;SDS011;64321;48.796;44.740;2023-06-14T19:33:37;16.70;;;4.13;;
75700;SDS011;64321;48.796;44.740;2023-06-14T19:39:15;8.77;;;3.08;;
75700;SDS011;64321;48.796;44.740;2023-06-14T19:44:51;14.45;;;3.25;;
75700;SDS011;64321;48.796;44.740;2023-06-14T19:50:28;11.93;;;3.53;;
75700;SDS011;64321;48.796;44.740;2023-06-14T19:56:04;11.88;;;2.50;;
75700;SDS011;64321;48.796;44.740;2023-06-14T20:01:31;12.18;;;2.72;;
75700;SDS011;64321;48.796;44.740;2023-06-14T20:06:54;15.52;;;2.90;;
75700;SDS011;64321;48.796;44.740;2023-06-14T20:12:39;13.63;;;3.30;;
75700;SDS011;64321;48.796;44.740;2023-06-14T20:18:37;11.13;;;3.00;;
75700;SDS011;64321;48.796;44.740;2023-06-14T20:30:09;15.40;;;3.83;;
75700;SDS011;64321;48.796;44.740;2023-06-14T20:35:58;11.50;;;3.53;;
75700;SDS011;64321;48.796;44.740;2023-06-14T20:42:04;11.73;;;3.97;;
75700;SDS011;64321;48.796;44.740;2023-06-14T20:48:36;9.15;;;2.88;;
75700;SDS011;64321;48.796;44.740;2023-06-14T20:54:41;14.13;;;4.18;;
75700;SDS011;64321;48.796;44.740;2023-06-14T21:00:24;8.20;;;2.80;;
75700;SDS011;64321;48.796;44.740;2023-06-14T21:06:08;11.88;;;3.85;;
75700;SDS011;64321;48.796;44.740;2023-06-14T21:11:54;11.52;;;4.00;;
75700;SDS011;64321;48.796;44.740;2023-06-14T21:18:20;10.95;;;4.30;;
75700;SDS011;64321;48.796;44.740;2023-06-14T21:24:13;16.80;;;3.70;;
75700;SDS011;64321;48.796;44.740;2023-06-14T21:30:37;14.18;;;3.55;;
75700;SDS011;64321;48.796;44.740;2023-06-14T21:36:45;9.93;;;2.75;;
75700;SDS011;64321;48.796;44.740;2023-06-14T21:42:46;8.45;;;3.00;;
75700;SDS011;64321;48.796;44.740;2023-06-14T21:48:26;13.02;;;4.22;;
75700;SDS011;64321;48.796;44.740;2023-06-14T21:53:47;12.98;;;3.75;;
75700;SDS011;64321;48.796;44.740;2023-06-14T21:59:47;8.98;;;3.70;;
75700;SDS011;64321;48.796;44.740;2023-06-14T22:06:00;9.15;;;2.30;;
75700;SDS011;64321;48.796;44.740;2023-06-14T22:11:51;9.77;;;3.55;;
75700;SDS011;64321;48.796;44.740;2023-06-14T22:17:50;8.18;;;2.45;;
75700;SDS011;64321;48.796;44.740;2023-06-14T22:23:49;8.15;;;2.55;;
75700;SDS011;64321;48.796;44.740;2023-06-14T22:29:40;7.32;;;2.88;;
75700;SDS011;64321;48.796;44.740;2023-06-14T22:35:22;12.02;;;2.70;;
75700;SDS011;64321;48.796;44.740;2023-06-14T22:41:07;9.32;;;2.25;;
75700;SDS011;64321;48.796;44.740;2023-06-14T22:46:59;11.10;;;2.30;;
75700;SDS011;64321;48.796;44.740;2023-06-14T22:59:01;12.13;;;2.85;;
75700;SDS011;64321;48.796;44.740;2023-06-14T23:04:28;8.25;;;2.10;;
75700;SDS011;64321;48.796;44.740;2023-06-14T23:10:42;8.88;;;2.38;;
75700;SDS011;64321;48.796;44.740;2023-06-14T23:16:07;6.68;;;2.42;;
75700;SDS011;64321;48.796;44.740;2023-06-14T23:22:02;8.13;;;2.25;;
75700;SDS011;64321;48.796;44.740;2023-06-14T23:27:28;5.38;;;2.10;;
75700;SDS011;64321;48.796;44.740;2023-06-14T23:33:17;8.75;;;2.33;;
75700;SDS011;64321;48.796;44.740;2023-06-14T23:38:59;9.70;;;2.30;;
75700;SDS011;64321;48.796;44.740;2023-06-14T23:44:57;7.68;;;2.20;;
75700;SDS011;64321;48.796;44.740;2023-06-14T23:50:53;10.40;;;2.72;;
75700;SDS011;64321;48.796;44.740;2023-06-14T23:57:12;6.88;;;2.40;;
